Time;durP1;ratioP1;P1;durP2;ratioP2;P2;SDS_P1;SDS_P2;PMS_P1;PMS_P2;Temp;Humidity;BMP_temperature;BMP_pressure;BME280_temperature;BME280_humidity;BME280_pressure;Samples;Min_cycle;Max_cycle;Signal;HPM_P1;HPM_P2
2022/04/08 00:01:25;;;;;;;9.20;1.20;;;6.00;99.90;;;;;;4951434;28;20061;-69
2022/04/08 00:03:52;;;;;;;8.32;1.63;;;6.00;99.90;;;;;;4951085;28;20051;-69
2022/04/08 00:06:18;;;;;;;11.80;1.33;;;6.70;99.90;;;;;;4935834;28;20097;-68
2022/04/08 00:08:45;;;;;;;8.40;1.20;;;6.20;99.90;;;;;;4964938;28;20053;-68
2022/04/08 00:11:11;;;;;;;6.45;1.35;;;6.00;99.90;;;;;;4964813;28;20439;-68
2022/04/08 00:13:37;;;;;;;4.60;0.73;;;6.00;99.90;;;;;;4967109;28;20105;-68
2022/04/08 00:16:03;;;;;;;8.52;1.13;;;6.00;99.90;;;;;;4950942;28;20046;-68
2022/04/08 00:18:29;;;;;;;8.90;1.10;;;6.00;99.90;;;;;;4949918;28;20057;-68
2022/04/08 00:20:56;;;;;;;7.45;1.13;;;6.00;99.90;;;;;;4966663;28;20045;-68
2022/04/08 00:23:22;;;;;;;8.85;1.38;;;6.00;99.90;;;;;;4967231;28;20053;-68
2022/04/08 00:25:48;;;;;;;11.00;1.75;;;6.00;99.90;;;;;;4967455;28;20403;-68
2022/04/08 00:28:13;;;;;;;4.57;0.85;;;6.00;99.90;;;;;;4950947;28;21944;-69
2022/04/08 00:30:39;;;;;;;6.20;0.77;;;6.10;99.90;;;;;;4966172;28;20137;-69
2022/04/08 00:33:05;;;;;;;8.45;1.27;;;6.10;99.90;;;;;;4967746;28;20534;-69
2022/04/08 00:35:31;;;;;;;5.30;0.88;;;6.00;99.90;;;;;;4967040;28;20431;-69
2022/04/08 00:37:57;;;;;;;5.65;0.95;;;5.90;99.90;;;;;;4967158;28;20054;-69
2022/04/08 00:40:23;;;;;;;2.50;0.50;;;5.90;99.90;;;;;;4951515;28;20042;-69
2022/04/08 00:42:52;;;;;;;3.60;0.93;;;5.80;99.90;;;;;;4951202;28;20097;-69
2022/04/08 00:45:17;;;;;;;5.43;0.90;;;5.80;99.90;;;;;;4950055;28;20054;-70
2022/04/08 00:47:44;;;;;;;3.15;0.50;;;6.30;99.90;;;;;;4949621;28;20046;-71
2022/04/08 00:50:11;;;;;;;2.92;0.57;;;5.50;99.90;;;;;;4950704;28;20043;-72
2022/04/08 00:52:41;;;;;;;3.30;0.50;;;6.20;99.90;;;;;;4965565;28;20054;-70
2022/04/08 00:55:07;;;;;;;3.45;0.50;;;5.10;99.90;;;;;;4966694;28;20054;-72
2022/04/08 00:57:34;;;;;;;2.30;0.60;;;5.00;99.90;;;;;;4951118;28;20126;-70
2022/04/08 01:00:09;;;;;;;2.78;0.70;;;5.50;99.90;;;;;;4966095;28;20070;-70
2022/04/08 01:02:35;;;;;;;2.13;0.60;;;4.90;99.90;;;;;;4965988;28;20050;-70
2022/04/08 01:05:02;;;;;;;3.80;0.63;;;5.40;99.90;;;;;;4967102;28;20431;-70
2022/04/08 01:07:28;;;;;;;4.28;0.70;;;4.80;99.90;;;;;;4949869;28;20063;-70
2022/04/08 01:09:54;;;;;;;3.83;0.43;;;4.80;99.90;;;;;;4951095;28;20047;-70
2022/04/08 01:12:20;;;;;;;2.65;0.50;;;5.20;99.90;;;;;;4934015;28;20177;-70
2022/04/08 01:14:49;;;;;;;4.45;0.70;;;4.70;99.90;;;;;;4933155;28;20043;-70
2022/04/08 01:17:14;;;;;;;4.00;0.65;;;4.60;99.90;;;;;;4963651;28;20055;-70
2022/04/08 01:19:40;;;;;;;5.60;0.85;;;4.70;99.90;;;;;;4965991;28;20039;-69
2022/04/08 01:22:06;;;;;;;3.30;0.60;;;4.70;99.90;;;;;;4966942;28;20130;-69
2022/04/08 01:24:35;;;;;;;4.70;1.00;;;4.70;99.90;;;;;;4968359;28;20047;-70
2022/04/08 01:27:02;;;;;;;4.03;1.30;;;5.70;99.90;;;;;;4967326;28;20133;-70
2022/04/08 01:29:28;;;;;;;4.00;0.90;;;4.70;99.90;;;;;;4965896;28;20058;-69
2022/04/08 01:31:54;;;;;;;13.43;1.95;;;4.70;99.90;;;;;;4965633;28;20054;-70
2022/04/08 01:34:20;;;;;;;6.25;1.25;;;5.70;99.90;;;;;;4953998;28;20058;-69
2022/04/08 01:36:46;;;;;;;3.22;0.60;;;4.70;99.90;;;;;;4970357;28;20079;-70
2022/04/08 01:39:11;;;;;;;7.85;1.10;;;4.60;99.90;;;;;;4937477;28;20506;-70
2022/04/08 01:41:37;;;;;;;7.30;1.20;;;4.60;99.90;;;;;;4970724;28;20054;-70
2022/04/08 01:44:03;;;;;;;9.00;0.85;;;4.80;99.90;;;;;;4971582;28;20519;-70
2022/04/08 01:46:28;;;;;;;10.15;1.88;;;4.60;99.90;;;;;;4958490;28;20512;-70
2022/04/08 01:48:55;;;;;;;8.68;1.70;;;4.60;99.90;;;;;;4974021;28;20045;-70
2022/04/08 01:51:21;;;;;;;10.65;1.65;;;4.60;99.90;;;;;;4942620;28;20055;-69
2022/04/08 01:53:47;;;;;;;5.07;1.20;;;4.60;99.90;;;;;;4958290;28;20101;-69
2022/04/08 01:56:13;;;;;;;10.75;1.60;;;5.30;99.90;;;;;;4958485;28;20065;-70
2022/04/08 01:58:39;;;;;;;7.80;0.93;;;4.50;99.90;;;;;;4974034;28;20404;-69
2022/04/08 02:01:05;;;;;;;13.77;1.50;;;4.50;99.90;;;;;;4974416;28;20082;-69
2022/04/08 02:03:31;;;;;;;5.47;0.70;;;4.50;99.90;;;;;;4974383;28;20109;-69
2022/04/08 02:05:56;;;;;;;8.80;1.17;;;4.50;99.90;;;;;;4957919;28;20047;-69
2022/04/08 02:08:22;;;;;;;4.07;0.88;;;4.60;99.90;;;;;;4958376;28;20047;-69
2022/04/08 02:10:48;;;;;;;6.95;0.90;;;4.00;99.90;;;;;;4972604;28;20042;-69
2022/04/08 02:13:13;;;;;;;7.50;1.00;;;4.60;99.90;;;;;;4973324;28;20047;-71
2022/04/08 02:15:39;;;;;;;7.25;1.67;;;4.50;99.90;;;;;;4955729;28;20058;-69
2022/04/08 02:18:05;;;;;;;9.52;1.70;;;4.50;99.90;;;;;;4972916;28;20061;-70
2022/04/08 02:20:32;;;;;;;12.35;1.45;;;4.50;99.90;;;;;;4972548;28;20113;-69
2022/04/08 02:22:59;;;;;;;8.70;1.40;;;4.50;99.90;;;;;;4973123;28;20042;-69
2022/04/08 02:25:26;;;;;;;12.68;1.60;;;4.50;99.90;;;;;;4972772;28;20043;-69
2022/04/08 02:27:52;;;;;;;7.57;1.95;;;4.50;99.90;;;;;;4973055;28;20090;-69
2022/04/08 02:30:18;;;;;;;4.25;0.90;;;4.50;99.90;;;;;;4973204;28;20034;-69
2022/04/08 02:32:43;;;;;;;6.60;1.02;;;4.50;99.90;;;;;;4974150;28;20065;-69
2022/04/08 02:35:09;;;;;;;7.05;1.23;;;4.50;99.90;;;;;;4973655;28;20047;-70
2022/04/08 02:37:35;;;;;;;6.93;1.13;;;4.50;99.90;;;;;;4973841;28;20502;-69
2022/04/08 02:40:01;;;;;;;8.38;1.50;;;5.10;99.90;;;;;;4956746;28;20051;-68
2022/04/08 02:42:30;;;;;;;11.60;1.20;;;4.70;99.90;;;;;;4972831;28;20440;-69
2022/04/08 02:44:56;;;;;;;7.00;1.52;;;4.50;99.90;;;;;;4970578;28;20050;-69
2022/04/08 02:47:22;;;;;;;10.07;1.40;;;4.90;99.90;;;;;;4970807;28;20039;-70
2022/04/08 02:49:52;;;;;;;11.65;1.80;;;3.70;99.90;;;;;;4971481;28;20046;-70
2022/04/08 02:52:18;;;;;;;4.15;0.82;;;4.60;99.90;;;;;;4956209;28;20093;-70
2022/04/08 02:54:44;;;;;;;6.78;1.00;;;4.70;99.90;;;;;;4972256;28;20089;-70
2022/04/08 02:57:09;;;;;;;6.53;1.00;;;4.70;99.90;;;;;;4956480;28;20530;-70
2022/04/08 02:59:35;;;;;;;6.18;1.27;;;4.70;99.90;;;;;;4955656;28;20046;-70
2022/04/08 03:02:01;;;;;;;6.30;1.00;;;5.00;99.90;;;;;;4940431;28;20054;-70
2022/04/08 03:04:26;;;;;;;8.18;1.17;;;4.60;99.90;;;;;;4972110;28;20480;-71
2022/04/08 03:06:54;;;;;;;6.10;1.17;;;5.10;99.90;;;;;;4955938;28;20047;-70
2022/04/08 03:09:21;;;;;;;4.90;1.30;;;4.80;99.90;;;;;;4971704;28;20070;-71
2022/04/08 03:11:47;;;;;;;10.38;1.30;;;5.00;99.90;;;;;;4956013;28;20067;-70
2022/04/08 03:14:12;;;;;;;4.85;1.02;;;5.20;99.90;;;;;;4971855;28;20114;-69
2022/04/08 03:16:38;;;;;;;6.07;1.30;;;4.30;99.90;;;;;;4940098;28;20609;-69
2022/04/08 03:19:04;;;;;;;6.00;0.90;;;4.80;99.90;;;;;;4971730;28;20047;-68
2022/04/08 03:21:30;;;;;;;6.40;1.52;;;4.50;99.90;;;;;;4955769;28;20446;-69
2022/04/08 03:23:57;;;;;;;9.20;1.20;;;4.90;99.90;;;;;;4971980;28;20555;-69
2022/04/08 03:26:23;;;;;;;7.03;0.90;;;5.20;99.90;;;;;;4970407;28;20515;-70
2022/04/08 03:28:49;;;;;;;6.38;1.42;;;4.30;99.90;;;;;;4972395;28;20051;-69
2022/04/08 03:31:15;;;;;;;4.57;1.23;;;4.20;99.90;;;;;;4957068;28;20061;-69
2022/04/08 03:33:41;;;;;;;6.13;1.27;;;4.10;99.90;;;;;;4956606;28;20097;-70
2022/04/08 03:36:07;;;;;;;11.60;1.73;;;4.10;99.90;;;;;;4956218;28;20108;-70
2022/04/08 03:38:33;;;;;;;7.88;2.05;;;4.60;99.90;;;;;;4971339;28;20133;-69
2022/04/08 03:40:59;;;;;;;5.68;1.50;;;4.00;99.90;;;;;;4955243;28;20492;-69
2022/04/08 03:43:24;;;;;;;7.10;1.20;;;3.90;99.90;;;;;;4955531;28;20050;-69
2022/04/08 03:45:50;;;;;;;4.38;1.58;;;4.30;99.90;;;;;;4971436;28;20054;-69
2022/04/08 03:48:16;;;;;;;4.78;1.30;;;4.30;99.90;;;;;;4971634;28;20049;-69
2022/04/08 03:50:42;;;;;;;12.18;1.55;;;4.70;99.90;;;;;;4954652;28;20046;-70
2022/04/08 03:53:10;;;;;;;6.30;1.33;;;3.90;99.90;;;;;;4939210;28;20487;-69
2022/04/08 03:55:36;;;;;;;8.82;1.35;;;4.20;99.90;;;;;;4971890;28;20135;-69
2022/04/08 03:58:02;;;;;;;5.32;1.20;;;4.50;99.90;;;;;;4972287;28;20496;-69
2022/04/08 04:00:28;;;;;;;9.63;1.45;;;4.20;99.90;;;;;;4972038;28;20046;-69
2022/04/08 04:02:53;;;;;;;8.18;2.13;;;4.20;99.90;;;;;;4972116;28;20045;-70
2022/04/08 04:05:19;;;;;;;5.90;1.20;;;4.00;99.90;;;;;;4971425;28;20407;-70
2022/04/08 04:07:45;;;;;;;6.38;1.13;;;4.00;99.90;;;;;;4967007;28;20511;-69
2022/04/08 04:10:14;;;;;;;8.73;1.10;;;4.00;99.90;;;;;;4970754;28;20046;-69
2022/04/08 04:12:42;;;;;;;6.20;1.15;;;3.90;99.90;;;;;;4971113;28;20145;-69
2022/04/08 04:15:09;;;;;;;3.05;1.20;;;3.90;99.90;;;;;;4954771;28;20054;-69
2022/04/08 04:17:35;;;;;;;7.05;1.08;;;4.00;99.90;;;;;;4971009;28;20054;-70
2022/04/08 04:20:01;;;;;;;5.72;1.20;;;4.70;99.90;;;;;;4970127;28;20129;-70
2022/04/08 04:22:27;;;;;;;6.72;1.02;;;4.10;99.90;;;;;;4970999;28;20137;-70
2022/04/08 04:24:53;;;;;;;4.65;1.10;;;4.40;99.90;;;;;;4971932;28;20161;-70
2022/04/08 04:27:18;;;;;;;5.95;1.73;;;4.30;99.90;;;;;;4952550;29;20049;-71
2022/04/08 04:29:44;;;;;;;4.72;0.90;;;4.30;99.90;;;;;;4968144;28;20046;-72
2022/04/08 04:32:10;;;;;;;4.32;1.10;;;4.10;99.90;;;;;;4971827;28;20043;-69
2022/04/08 04:34:38;;;;;;;3.75;1.23;;;4.00;99.90;;;;;;4971665;28;20137;-71
2022/04/08 04:37:05;;;;;;;4.80;0.98;;;4.20;99.90;;;;;;4971589;28;20046;-70
2022/04/08 04:39:31;;;;;;;2.92;1.15;;;3.80;99.90;;;;;;4971741;28;20484;-70
2022/04/08 04:41:57;;;;;;;5.05;1.25;;;3.70;99.90;;;;;;4971835;28;20039;-70
2022/04/08 04:44:24;;;;;;;1.95;1.00;;;4.40;99.90;;;;;;4956014;28;20381;-71
2022/04/08 04:46:50;;;;;;;3.28;0.98;;;4.00;99.90;;;;;;4971486;28;20058;-69
2022/04/08 04:49:16;;;;;;;1.75;1.10;;;3.50;99.90;;;;;;4970755;28;20043;-69
2022/04/08 04:51:42;;;;;;;2.78;1.02;;;3.50;99.90;;;;;;4970764;28;20046;-69
2022/04/08 04:54:07;;;;;;;6.43;1.17;;;3.50;99.90;;;;;;4955210;28;20506;-70
2022/04/08 04:56:33;;;;;;;6.53;1.17;;;3.50;99.90;;;;;;4955429;28;20054;-69
2022/04/08 04:58:59;;;;;;;3.83;1.30;;;3.50;99.90;;;;;;4971245;28;20412;-71
2022/04/08 05:01:25;;;;;;;3.25;1.10;;;4.00;99.90;;;;;;4955426;28;20039;-69
2022/04/08 05:03:50;;;;;;;4.97;1.50;;;3.50;99.90;;;;;;4971461;28;20138;-70
2022/04/08 05:06:16;;;;;;;6.03;1.30;;;4.20;99.90;;;;;;4970603;28;20047;-70
2022/04/08 05:08:42;;;;;;;4.45;1.27;;;3.50;99.90;;;;;;4970827;28;20053;-69
2022/04/08 05:11:07;;;;;;;6.80;1.60;;;3.50;99.90;;;;;;4971423;28;20054;-69
2022/04/08 05:13:33;;;;;;;4.80;1.35;;;4.00;99.90;;;;;;4955738;28;20058;-69
2022/04/08 05:15:59;;;;;;;2.83;1.30;;;3.50;99.90;;;;;;4955277;28;20054;-69
2022/04/08 05:18:25;;;;;;;4.68;1.88;;;3.60;99.90;;;;;;4955030;28;20049;-68
2022/04/08 05:20:52;;;;;;;3.78;1.17;;;4.00;99.90;;;;;;4942234;28;20074;-70
2022/04/08 05:23:21;;;;;;;7.45;1.65;;;3.70;99.90;;;;;;4958935;28;20400;-70
2022/04/08 05:25:47;;;;;;;5.03;1.60;;;4.40;99.90;;;;;;4974947;28;20153;-70
2022/04/08 05:28:13;;;;;;;2.50;1.30;;;4.50;99.90;;;;;;4974618;28;20496;-70
2022/04/08 05:30:39;;;;;;;7.28;1.55;;;3.90;99.90;;;;;;4974777;28;20046;-71
2022/04/08 05:33:05;;;;;;;4.70;1.60;;;3.80;99.90;;;;;;4975227;28;20137;-70
2022/04/08 05:35:30;;;;;;;8.52;1.55;;;3.80;99.90;;;;;;4975165;28;20055;-70
2022/04/08 05:37:56;;;;;;;4.90;1.60;;;3.80;99.90;;;;;;4974537;28;20051;-69
2022/04/08 05:40:22;;;;;;;4.32;1.42;;;4.20;99.90;;;;;;4974702;28;20447;-69
2022/04/08 05:42:49;;;;;;;4.38;1.98;;;3.80;99.90;;;;;;4974853;28;20070;-72
2022/04/08 05:45:18;;;;;;;2.97;1.60;;;3.80;99.90;;;;;;4958599;28;20105;-73
2022/04/08 05:47:47;;;;;;;6.10;1.40;;;4.40;99.90;;;;;;4974638;28;20054;-71
2022/04/08 05:50:14;;;;;;;3.45;1.35;;;3.90;99.90;;;;;;4974025;28;20158;-70
2022/04/08 05:52:43;;;;;;;2.75;1.20;;;4.00;99.90;;;;;;4958734;28;20149;-70
2022/04/08 05:55:09;;;;;;;4.55;1.30;;;4.10;99.90;;;;;;4974065;28;20055;-69
2022/04/08 05:57:36;;;;;;;2.67;1.17;;;4.80;99.90;;;;;;4974301;28;20061;-70
2022/04/08 06:00:04;;;;;;;2.83;1.20;;;4.30;99.90;;;;;;4967599;28;20050;-69
2022/04/08 06:02:30;;;;;;;2.67;1.30;;;4.30;99.90;;;;;;4958530;28;20049;-70
2022/04/08 06:04:55;;;;;;;2.70;1.30;;;4.30;99.90;;;;;;4974305;28;20047;-70
2022/04/08 06:07:25;;;;;;;3.50;1.25;;;4.80;99.90;;;;;;4958207;28;20534;-70
2022/04/08 06:09:52;;;;;;;3.75;1.45;;;4.30;99.90;;;;;;4972574;28;20137;-70
2022/04/08 06:12:17;;;;;;;5.18;1.27;;;4.20;99.90;;;;;;4957908;28;20117;-69
2022/04/08 06:14:43;;;;;;;5.35;1.60;;;4.70;99.90;;;;;;4974282;28;20836;-69
2022/04/08 06:17:09;;;;;;;2.60;1.60;;;4.20;99.90;;;;;;4975278;28;20125;-69
2022/04/08 06:19:34;;;;;;;3.60;1.27;;;4.70;99.90;;;;;;4972192;28;20039;-74
2022/04/08 06:22:00;;;;;;;3.25;1.40;;;4.90;99.90;;;;;;4941375;28;20507;-71
2022/04/08 06:24:26;;;;;;;5.85;1.50;;;4.20;99.90;;;;;;4972623;28;20416;-70
2022/04/08 06:26:51;;;;;;;5.53;1.55;;;5.20;99.90;;;;;;4972752;28;20043;-71
2022/04/08 06:29:17;;;;;;;3.17;1.48;;;4.80;99.90;;;;;;4956369;28;20571;-70
2022/04/08 06:31:43;;;;;;;2.60;1.30;;;5.20;99.90;;;;;;4974638;28;20915;-71
2022/04/08 06:34:08;;;;;;;2.45;1.40;;;4.60;99.90;;;;;;4957695;28;20062;-70
2022/04/08 06:36:34;;;;;;;2.33;1.10;;;4.70;99.90;;;;;;4974016;28;20043;-71
2022/04/08 06:39:00;;;;;;;7.03;1.40;;;5.70;99.90;;;;;;4973306;28;20066;-70
2022/04/08 06:41:25;;;;;;;3.53;1.25;;;5.10;99.90;;;;;;4974141;28;20054;-70
2022/04/08 06:43:51;;;;;;;5.10;1.50;;;4.90;99.90;;;;;;4957409;28;20137;-70
2022/04/08 06:46:17;;;;;;;4.03;1.20;;;4.90;99.90;;;;;;4973320;28;20102;-71
2022/04/08 06:48:43;;;;;;;5.57;1.80;;;5.00;99.90;;;;;;4970472;28;20820;-70
2022/04/08 06:51:08;;;;;;;4.50;1.65;;;5.00;99.90;;;;;;4971313;28;20047;-70
2022/04/08 06:53:34;;;;;;;6.70;2.15;;;5.10;99.90;;;;;;4972448;28;20047;-69
2022/04/08 06:56:04;;;;;;;4.57;2.08;;;5.20;99.90;;;;;;4972314;28;20089;-71
2022/04/08 06:58:31;;;;;;;7.28;2.00;;;5.30;99.90;;;;;;4970458;28;20050;-71
2022/04/08 07:00:57;;;;;;;7.45;2.30;;;5.40;99.90;;;;;;4956377;28;20067;-70
2022/04/08 07:03:23;;;;;;;6.45;2.00;;;5.40;99.90;;;;;;4956065;28;20466;-70
2022/04/08 07:05:49;;;;;;;3.45;1.88;;;5.70;99.90;;;;;;4956214;28;20105;-82
2022/04/08 07:08:15;;;;;;;5.22;1.90;;;5.40;99.90;;;;;;4972156;28;20462;-70
2022/04/08 07:10:40;;;;;;;3.72;1.42;;;5.60;99.90;;;;;;4955070;28;20134;-73
2022/04/08 07:13:07;;;;;;;6.07;2.15;;;5.60;99.90;;;;;;4955648;28;20078;-71
2022/04/08 07:15:33;;;;;;;5.97;1.90;;;5.70;99.90;;;;;;4955634;28;20059;-71
2022/04/08 07:17:59;;;;;;;5.25;1.73;;;5.70;99.90;;;;;;4955713;28;20102;-71
2022/04/08 07:20:25;;;;;;;6.57;2.10;;;6.00;99.90;;;;;;4955436;28;20051;-70
2022/04/08 07:22:52;;;;;;;5.20;1.90;;;5.90;99.90;;;;;;4972235;28;20403;-71
2022/04/08 07:25:18;;;;;;;2.65;1.50;;;6.10;99.90;;;;;;4955560;28;20454;-71
2022/04/08 07:27:52;;;;;;;5.78;1.67;;;6.10;99.90;;;;;;4972028;28;20046;-72
2022/04/08 07:30:20;;;;;;;5.25;3.25;;;6.10;99.90;;;;;;4971529;28;20050;-71
2022/04/08 07:32:48;;;;;;;3.72;1.90;;;6.20;99.90;;;;;;4973011;28;20068;-73
2022/04/08 07:35:14;;;;;;;9.40;5.72;;;6.30;99.90;;;;;;4974057;28;20086;-71
2022/04/08 07:37:40;;;;;;;10.93;5.55;;;6.30;99.90;;;;;;4973761;28;20082;-71
2022/04/08 07:40:10;;;;;;;16.70;14.95;;;6.50;99.90;;;;;;4972199;28;20101;-71
2022/04/08 07:42:36;;;;;;;10.60;3.90;;;6.50;99.90;;;;;;4970252;28;20066;-71
2022/04/08 07:45:03;;;;;;;7.38;3.20;;;6.60;99.90;;;;;;4954986;28;20046;-70
2022/04/08 07:47:29;;;;;;;8.77;3.63;;;6.70;99.90;;;;;;4971459;28;20446;-70
2022/04/08 07:50:06;;;;;;;3.28;1.83;;;6.60;99.90;;;;;;4970720;28;20058;-71
2022/04/08 07:52:32;;;;;;;4.65;1.92;;;6.60;99.90;;;;;;4971909;28;20162;-71
2022/04/08 07:54:58;;;;;;;4.45;1.67;;;6.60;99.90;;;;;;4956396;28;20420;-70
2022/04/08 07:57:24;;;;;;;6.15;2.08;;;6.80;99.90;;;;;;4970175;28;20506;-71
2022/04/08 07:59:50;;;;;;;7.53;2.10;;;7.00;99.90;;;;;;4970811;28;20050;-70
2022/04/08 08:02:16;;;;;;;4.75;1.83;;;7.10;99.90;;;;;;4953861;28;20483;-71
2022/04/08 08:04:41;;;;;;;5.53;2.03;;;7.20;99.90;;;;;;4973335;28;20069;-69
2022/04/08 08:07:08;;;;;;;4.85;1.48;;;7.20;99.90;;;;;;4954061;28;20491;-70
2022/04/08 08:09:42;;;;;;;9.60;2.05;;;7.30;99.90;;;;;;4955015;28;20042;-70
2022/04/08 08:12:09;;;;;;;6.95;1.92;;;7.40;99.90;;;;;;4970471;28;20381;-71
2022/04/08 08:14:35;;;;;;;4.80;2.13;;;7.50;99.90;;;;;;4955267;28;20047;-71
2022/04/08 08:17:01;;;;;;;5.30;3.05;;;7.60;99.90;;;;;;4971296;28;20406;-70
2022/04/08 08:19:28;;;;;;;6.95;1.30;;;7.40;99.90;;;;;;4954948;28;20392;-71
2022/04/08 08:21:53;;;;;;;3.72;1.05;;;7.20;99.90;;;;;;4956207;28;20061;-71
2022/04/08 08:24:19;;;;;;;2.47;1.00;;;6.80;99.90;;;;;;4971929;28;20046;-71
2022/04/08 08:26:45;;;;;;;1.67;0.90;;;6.90;99.90;;;;;;4972265;28;20047;-72
2022/04/08 08:29:10;;;;;;;2.80;1.10;;;7.00;99.90;;;;;;4938762;28;20047;-69
2022/04/08 08:31:36;;;;;;;3.55;1.00;;;7.10;99.90;;;;;;4971954;28;20050;-70
2022/04/08 08:34:02;;;;;;;2.80;1.15;;;7.80;99.90;;;;;;4971008;28;20086;-70
2022/04/08 08:36:29;;;;;;;6.28;1.55;;;7.40;99.90;;;;;;4971914;28;20038;-72
2022/04/08 08:38:55;;;;;;;3.10;2.15;;;7.60;99.90;;;;;;4954328;28;20050;-73
2022/04/08 08:41:23;;;;;;;2.00;1.42;;;7.70;99.90;;;;;;4970971;28;20117;-73
2022/04/08 08:43:52;;;;;;;3.67;1.58;;;7.70;99.90;;;;;;4969643;28;20074;-71
2022/04/08 08:46:19;;;;;;;6.38;2.05;;;7.90;99.90;;;;;;4970933;28;20047;-70
2022/04/08 08:48:46;;;;;;;5.82;1.70;;;7.80;99.90;;;;;;4954705;28;20042;-70
2022/04/08 08:51:13;;;;;;;5.35;1.55;;;7.80;99.90;;;;;;4954412;28;20488;-71
2022/04/08 08:53:41;;;;;;;5.05;1.50;;;7.70;99.90;;;;;;4956689;28;20046;-70
2022/04/08 08:56:07;;;;;;;3.72;1.48;;;8.00;99.90;;;;;;4959085;28;20046;-70
2022/04/08 08:58:34;;;;;;;5.85;1.42;;;8.00;99.90;;;;;;4977624;28;20106;-72
2022/04/08 09:01:00;;;;;;;4.53;1.50;;;7.90;99.90;;;;;;4943029;28;20042;-71
2022/04/08 09:03:29;;;;;;;5.45;1.50;;;8.00;99.90;;;;;;4974351;28;20051;-71
2022/04/08 09:06:06;;;;;;;4.25;1.75;;;8.10;99.90;;;;;;4975862;28;20499;-73
2022/04/08 09:08:33;;;;;;;4.70;2.08;;;8.10;99.90;;;;;;4974934;28;20046;-74
2022/04/08 09:10:59;;;;;;;5.65;1.58;;;8.40;99.90;;;;;;4959245;28;20434;-72
2022/04/08 09:13:24;;;;;;;5.93;1.98;;;8.20;99.90;;;;;;4959601;28;20053;-74
2022/04/08 09:15:57;;;;;;;4.00;1.50;;;8.40;99.90;;;;;;4943838;28;20085;-71
2022/04/08 09:18:26;;;;;;;8.73;3.15;;;8.60;99.90;;;;;;4973945;28;20546;-72
2022/04/08 09:20:52;;;;;;;7.78;1.80;;;8.70;99.90;;;;;;4974377;28;20054;-71
2022/04/08 09:23:18;;;;;;;7.20;2.17;;;8.70;99.90;;;;;;4958956;28;20075;-70
2022/04/08 09:25:47;;;;;;;4.35;1.63;;;8.60;99.90;;;;;;4959102;28;20047;-71
2022/04/08 09:28:18;;;;;;;6.72;1.90;;;8.50;99.90;;;;;;4958476;28;20046;-70
2022/04/08 09:30:53;;;;;;;3.47;1.25;;;8.00;99.90;;;;;;4974754;28;20050;-70
2022/04/08 09:33:21;;;;;;;5.25;2.00;;;7.70;99.90;;;;;;4974797;28;20046;-72
2022/04/08 09:35:48;;;;;;;6.10;1.45;;;8.10;99.90;;;;;;4975084;28;20510;-72
2022/04/08 09:38:22;;;;;;;4.38;1.50;;;8.50;99.90;;;;;;4973736;28;20641;-72
2022/04/08 09:40:49;;;;;;;6.82;1.58;;;8.70;99.90;;;;;;4974250;28;20050;-71
2022/04/08 09:43:16;;;;;;;6.07;1.42;;;9.20;99.90;;;;;;4958627;28;20054;-69
2022/04/08 09:45:43;;;;;;;5.70;1.33;;;8.80;99.90;;;;;;4958520;28;20133;-71
2022/04/08 09:48:09;;;;;;;3.30;1.80;;;8.30;99.90;;;;;;4973484;28;20503;-72
2022/04/08 09:50:37;;;;;;;3.17;1.60;;;7.20;99.90;;;;;;4955824;28;20055;-73
2022/04/08 09:53:05;;;;;;;2.58;1.10;;;6.50;99.90;;;;;;4975312;28;20090;-73
2022/04/08 09:55:31;;;;;;;2.08;0.95;;;6.20;99.90;;;;;;4973718;28;20058;-73
2022/04/08 09:58:05;;;;;;;3.38;0.90;;;6.20;99.90;;;;;;4974986;28;20100;-72
2022/04/08 10:00:32;;;;;;;4.63;1.30;;;6.20;99.90;;;;;;4973249;28;20394;-71
2022/04/08 10:03:01;;;;;;;4.15;1.13;;;6.50;99.90;;;;;;4956914;28;20055;-73
2022/04/08 10:05:27;;;;;;;8.18;4.03;;;7.40;99.90;;;;;;4972428;28;20488;-75
2022/04/08 10:07:55;;;;;;;4.95;1.60;;;7.40;99.90;;;;;;4958255;28;20047;-75
2022/04/08 10:10:33;;;;;;;4.22;1.90;;;7.80;99.90;;;;;;4974165;28;20054;-70
2022/04/08 10:13:17;;;;;;;1.77;0.90;;;8.10;99.90;;;;;;4956746;28;20054;-71
2022/04/08 10:15:59;;;;;;;1.70;0.70;;;7.90;99.90;;;;;;4962532;28;20113;-71
2022/04/08 10:18:46;;;;;;;1.60;0.80;;;7.60;99.90;;;;;;4979683;28;20105;-71
2022/04/08 10:21:12;;;;;;;1.75;1.15;;;7.20;99.90;;;;;;4965384;28;20477;-72
2022/04/08 10:23:40;;;;;;;2.97;0.80;;;7.00;99.90;;;;;;4972400;28;20050;-71
2022/04/08 10:26:16;;;;;;;3.70;1.15;;;7.00;99.90;;;;;;4957576;28;20074;-72
2022/04/08 10:28:42;;;;;;;1.70;1.38;;;7.30;99.90;;;;;;4973650;28;20057;-71
2022/04/08 10:31:18;;;;;;;2.15;1.20;;;7.50;99.90;;;;;;4973960;28;20046;-71
2022/04/08 10:33:56;;;;;;;3.08;1.23;;;7.60;99.90;;;;;;4955998;28;20059;-71
2022/04/08 10:36:37;;;;;;;8.32;1.35;;;7.80;99.90;;;;;;4973773;28;20051;-71
2022/04/08 10:39:16;;;;;;;7.25;1.88;;;8.10;99.90;;;;;;4974722;28;20085;-70
2022/04/08 10:41:46;;;;;;;6.65;1.80;;;8.40;99.90;;;;;;4973447;28;20120;-70
2022/04/08 10:44:12;;;;;;;4.57;1.45;;;8.70;99.90;;;;;;4973397;28;20054;-71
2022/04/08 10:46:52;;;;;;;3.70;1.30;;;9.00;99.90;;;;;;4973118;28;20130;-70
2022/04/08 10:49:18;;;;;;;4.78;1.65;;;9.10;99.90;;;;;;4955929;28;20126;-70
2022/04/08 10:51:51;;;;;;;7.32;2.00;;;9.20;99.90;;;;;;4956471;28;20051;-71
2022/04/08 10:54:17;;;;;;;3.08;1.60;;;9.30;99.90;;;;;;4972260;28;20152;-75
2022/04/08 10:56:43;;;;;;;2.00;1.00;;;9.00;99.90;;;;;;4972466;28;20085;-70
2022/04/08 10:59:10;;;;;;;4.47;1.30;;;8.70;99.90;;;;;;4971234;28;20054;-70
2022/04/08 11:01:46;;;;;;;4.70;1.30;;;8.40;99.90;;;;;;4956124;28;20051;-70
2022/04/08 11:04:12;;;;;;;4.95;1.27;;;8.30;99.90;;;;;;4972222;28;20051;-69
2022/04/08 11:06:37;;;;;;;2.92;1.10;;;8.30;99.90;;;;;;4973008;28;20491;-71
2022/04/08 11:09:12;;;;;;;4.20;1.00;;;8.30;99.90;;;;;;4956191;28;20408;-71
2022/04/08 11:11:39;;;;;;;3.63;1.30;;;8.50;99.90;;;;;;4973177;28;20126;-73
2022/04/08 11:14:06;;;;;;;3.15;1.20;;;8.90;99.90;;;;;;4973272;28;20079;-71
2022/04/08 11:16:40;;;;;;;3.00;1.30;;;9.00;99.90;;;;;;4955413;28;20051;-73
2022/04/08 11:19:11;;;;;;;3.53;1.20;;;9.10;99.90;;;;;;4955996;28;20122;-72
2022/04/08 11:21:41;;;;;;;3.80;1.55;;;9.50;99.90;;;;;;4973119;28;20055;-73
2022/04/08 11:24:16;;;;;;;5.40;1.83;;;9.80;99.90;;;;;;4973171;28;20077;-72
2022/04/08 11:26:52;;;;;;;5.43;1.50;;;9.80;99.90;;;;;;4959525;28;20043;-73
2022/04/08 11:29:21;;;;;;;2.30;0.80;;;10.00;99.90;;;;;;4961283;28;20043;-72
2022/04/08 11:31:48;;;;;;;2.08;0.90;;;9.80;99.90;;;;;;4969018;28;20043;-73
2022/04/08 11:34:14;;;;;;;1.92;0.63;;;9.60;99.90;;;;;;4942174;28;20515;-72
2022/04/08 11:36:41;;;;;;;4.88;1.27;;;9.50;99.90;;;;;;4955939;28;20122;-72
2022/04/08 11:39:08;;;;;;;2.88;1.00;;;9.30;99.90;;;;;;4970728;28;20073;-74
2022/04/08 11:41:35;;;;;;;4.28;1.33;;;9.30;99.90;;;;;;4955249;28;20043;-73
2022/04/08 11:44:03;;;;;;;3.88;1.10;;;9.10;99.90;;;;;;4971230;28;20440;-75
2022/04/08 11:46:29;;;;;;;4.97;1.17;;;9.00;99.90;;;;;;4955476;28;20046;-75
2022/04/08 11:48:55;;;;;;;3.63;1.20;;;9.20;99.90;;;;;;4970740;28;20038;-72
2022/04/08 11:51:21;;;;;;;2.63;0.90;;;9.60;99.90;;;;;;4972936;28;20066;-73
2022/04/08 11:53:49;;;;;;;6.47;0.82;;;9.70;99.90;;;;;;4954948;28;20054;-72
2022/04/08 11:56:28;;;;;;;5.22;1.20;;;10.00;99.90;;;;;;4952926;28;20047;-72
2022/04/08 11:58:55;;;;;;;4.47;1.08;;;10.20;99.90;;;;;;4970277;28;20053;-75
2022/04/08 12:01:21;;;;;;;7.03;1.33;;;10.50;99.90;;;;;;4972830;28;20055;-72
2022/04/08 12:03:54;;;;;;;4.78;1.10;;;10.70;99.90;;;;;;4971930;28;20054;-70
2022/04/08 12:06:20;;;;;;;6.00;1.50;;;10.70;99.90;;;;;;4970667;28;20499;-71
2022/04/08 12:08:47;;;;;;;6.32;1.70;;;10.80;99.90;;;;;;4970185;28;20050;-72
2022/04/08 12:11:13;;;;;;;5.22;1.38;;;11.00;99.90;;;;;;4955198;28;20042;-74
2022/04/08 12:13:41;;;;;;;7.00;1.38;;;11.10;99.90;;;;;;4970994;28;20152;-73
2022/04/08 12:16:12;;;;;;;4.00;1.27;;;10.90;99.90;;;;;;4955843;28;20396;-75
2022/04/08 12:18:48;;;;;;;;;;;11.30;99.90;;;;;;4972039;28;20051;-73
2022/04/08 12:21:24;;;;;;;4.32;1.17;;;11.20;99.90;;;;;;4971789;28;19926;-75
2022/04/08 12:23:51;;;;;;;6.55;1.20;;;11.20;99.90;;;;;;4972388;28;20451;-74
2022/04/08 12:26:17;;;;;;;5.68;1.35;;;11.10;99.90;;;;;;4971640;28;20058;-74
2022/04/08 12:28:43;;;;;;;9.48;1.50;;;11.30;99.90;;;;;;4955095;28;20156;-72
2022/04/08 12:31:12;;;;;;;3.90;1.30;;;11.50;99.90;;;;;;4970249;28;20105;-71
2022/04/08 12:33:38;;;;;;;3.78;1.00;;;11.80;99.90;;;;;;4970317;28;20411;-72
2022/04/08 12:36:09;;;;;;;5.30;1.30;;;12.10;99.90;;;;;;4938863;28;20047;-72
2022/04/08 12:38:36;;;;;;;3.53;1.10;;;12.40;99.90;;;;;;4969972;28;20054;-71
2022/04/08 12:41:02;;;;;;;5.45;1.23;;;12.60;99.90;;;;;;4970893;28;20499;-72
2022/04/08 12:43:27;;;;;;;4.55;1.10;;;12.80;99.90;;;;;;4970901;28;20050;-72
2022/04/08 12:45:53;;;;;;;5.88;1.17;;;12.40;99.90;;;;;;4938920;28;20049;-73
2022/04/08 12:48:19;;;;;;;4.80;1.13;;;12.50;99.90;;;;;;4954002;28;20053;-72
2022/04/08 12:50:44;;;;;;;3.58;1.23;;;12.30;99.90;;;;;;4969746;28;20043;-72
2022/04/08 12:53:10;;;;;;;4.35;0.90;;;11.80;99.90;;;;;;4971222;28;20097;-72
2022/04/08 12:55:36;;;;;;;4.10;1.10;;;11.50;99.90;;;;;;4955177;28;20476;-72